createdAt,value
2019-03-26T00:02:45.358Z,4.63
2019-03-26T00:05:18.397Z,6.10
2019-03-26T00:08:54.304Z,4.87
2019-03-26T00:11:31.491Z,4.97
2019-03-26T00:14:04.124Z,4.83
2019-03-26T00:16:53.354Z,4.17
2019-03-26T00:19:42.820Z,4.33
2019-03-26T00:22:14.529Z,4.83
2019-03-26T00:24:48.587Z,4.90
2019-03-26T00:27:24.478Z,4.33
2019-03-26T00:29:57.926Z,4.50
2019-03-26T00:32:58.784Z,4.37
2019-03-26T00:35:30.848Z,4.50
2019-03-26T00:38:04.057Z,4.47
2019-03-26T00:40:40.091Z,3.90
2019-03-26T00:43:12.908Z,3.77
2019-03-26T00:46:02.383Z,4.30
2019-03-26T00:48:54.998Z,4.03
2019-03-26T00:51:46.162Z,4.10
2019-03-26T00:54:21.207Z,4.03
2019-03-26T00:56:54.558Z,3.63
2019-03-26T00:59:28.265Z,3.83
2019-03-26T01:01:59.710Z,4.87
2019-03-26T01:04:33.404Z,4.10
2019-03-26T01:07:10.559Z,4.73
2019-03-26T01:10:00.230Z,4.60
2019-03-26T01:12:35.170Z,4.20
2019-03-26T01:15:11.701Z,4.40
2019-03-26T01:17:45.677Z,4.13
2019-03-26T01:20:18.570Z,5.23
2019-03-26T01:22:50.442Z,4.37
2019-03-26T01:25:22.138Z,4.40
2019-03-26T01:28:12.762Z,4.57
2019-03-26T01:30:44.165Z,3.90
2019-03-26T01:33:17.628Z,4.50
2019-03-26T01:35:52.201Z,4.03
2019-03-26T01:38:41.714Z,5.03
2019-03-26T01:41:16.926Z,4.80
2019-03-26T01:43:49.531Z,4.23
2019-03-26T01:46:22.467Z,4.10
2019-03-26T01:48:54.998Z,5.00
2019-03-26T01:51:36.115Z,4.50
2019-03-26T01:54:09.023Z,4.47
2019-03-26T01:56:41.756Z,5.43
2019-03-26T01:59:15.346Z,4.40
2019-03-26T02:01:55.391Z,4.40
2019-03-26T02:04:58.829Z,4.67
2019-03-26T02:07:39.030Z,4.70
2019-03-26T02:10:30.289Z,4.60
2019-03-26T02:13:19.688Z,4.77
2019-03-26T02:16:08.682Z,4.77
2019-03-26T02:18:44.480Z,5.10
2019-03-26T02:21:18.599Z,5.20
2019-03-26T02:23:54.707Z,4.30
2019-03-26T02:26:34.285Z,5.30
2019-03-26T02:29:06.828Z,4.70
2019-03-26T02:31:41.358Z,5.23
2019-03-26T02:34:13.755Z,5.50
2019-03-26T02:36:48.394Z,5.43
2019-03-26T02:39:24.256Z,5.30
2019-03-26T02:41:56.724Z,5.50
2019-03-26T02:44:45.951Z,6.10
2019-03-26T02:47:17.648Z,6.07
2019-03-26T02:49:50.380Z,5.93
2019-03-26T02:52:22.232Z,6.67
2019-03-26T02:54:55.628Z,6.80
2019-03-26T02:57:28.319Z,6.40
2019-03-26T03:00:02.320Z,7.20
2019-03-26T03:02:34.685Z,7.87
2019-03-26T03:05:09.132Z,7.27
2019-03-26T03:07:58.542Z,6.40
2019-03-26T03:10:48.527Z,7.03
2019-03-26T03:13:38.063Z,8.33
2019-03-26T03:16:18.785Z,7.40
2019-03-26T03:18:53.400Z,7.73
2019-03-26T03:21:30.901Z,7.60
2019-03-26T03:24:03.966Z,7.50
2019-03-26T03:26:38.555Z,7.60
2019-03-26T03:29:11.275Z,7.70
2019-03-26T03:31:42.784Z,7.17
2019-03-26T03:34:21.816Z,7.93
2019-03-26T03:36:54.711Z,6.60
2019-03-26T03:39:30.063Z,7.57
2019-03-26T03:42:04.681Z,7.03
2019-03-26T03:44:37.599Z,7.20
2019-03-26T03:47:14.568Z,6.80
2019-03-26T03:49:46.450Z,7.20
2019-03-26T03:52:28.640Z,6.87
2019-03-26T03:55:00.888Z,7.03
2019-03-26T03:57:38.053Z,7.47
2019-03-26T04:00:38.199Z,7.00
2019-03-26T04:03:13.120Z,7.13
2019-03-26T04:06:09.686Z,6.43
2019-03-26T04:08:34.860Z,6.80
2019-03-26T04:11:05.887Z,6.87
2019-03-26T04:13:41.565Z,6.00
2019-03-26T04:16:13.839Z,5.53
2019-03-26T04:18:47.850Z,5.53
2019-03-26T04:21:18.918Z,5.70
2019-03-26T04:23:50.571Z,5.30
2019-03-26T04:26:28.049Z,5.60
2019-03-26T04:28:59.135Z,5.57
2019-03-26T04:31:34.102Z,6.00
2019-03-26T04:34:07.169Z,5.90
2019-03-26T04:36:45.186Z,6.10
2019-03-26T04:39:17.992Z,5.90
2019-03-26T04:41:52.855Z,5.97
2019-03-26T04:44:25.512Z,5.77
2019-03-26T04:46:59.823Z,6.30
2019-03-26T04:49:33.064Z,6.77
2019-03-26T04:52:12.346Z,6.90
2019-03-26T04:54:46.391Z,6.27
2019-03-26T04:57:18.290Z,6.43
2019-03-26T04:59:51.208Z,7.77
2019-03-26T05:02:25.418Z,7.20
2019-03-26T05:05:06.247Z,6.33
2019-03-26T05:07:39.149Z,7.77
2019-03-26T05:10:13.654Z,8.10
2019-03-26T05:12:47.381Z,8.83
2019-03-26T05:15:18.570Z,7.67
2019-03-26T05:17:56.882Z,8.30
2019-03-26T05:20:30.502Z,8.30
2019-03-26T05:23:04.783Z,7.60
2019-03-26T05:25:38.002Z,7.33
2019-03-26T05:28:10.415Z,7.47
2019-03-26T05:30:42.124Z,8.70
2019-03-26T05:33:15.290Z,7.53
2019-03-26T05:35:47.917Z,8.17
2019-03-26T05:38:24.868Z,7.00
2019-03-26T05:40:59.903Z,7.10
2019-03-26T05:43:37.192Z,7.77
2019-03-26T05:46:10.909Z,7.77
2019-03-26T05:48:44.975Z,7.37
2019-03-26T05:51:31.577Z,7.87
2019-03-26T05:54:21.064Z,8.40
2019-03-26T05:56:54.552Z,8.10
2019-03-26T05:59:27.578Z,8.77
2019-03-26T06:02:13.369Z,7.50
2019-03-26T06:04:53.481Z,7.60
2019-03-26T06:07:31.266Z,7.60
2019-03-26T06:10:09.494Z,7.70
2019-03-26T06:12:45.448Z,8.20
2019-03-26T06:15:37.750Z,7.10
2019-03-26T06:18:13.233Z,8.27
2019-03-26T06:20:54.701Z,7.97
2019-03-26T06:23:38.295Z,8.67
2019-03-26T06:26:15.947Z,8.13
2019-03-26T06:29:05.631Z,7.90
2019-03-26T06:31:48.797Z,9.20
2019-03-26T06:34:26.142Z,8.77
2019-03-26T06:37:02.551Z,8.23
2019-03-26T06:39:33.843Z,9.47
2019-03-26T06:42:10.983Z,10.47
2019-03-26T06:44:50.127Z,9.00
2019-03-26T06:47:27.562Z,10.00
2019-03-26T06:50:10.595Z,9.40
2019-03-26T06:53:02.753Z,9.50
2019-03-26T06:55:44.087Z,9.17
2019-03-26T06:58:27.281Z,10.03
2019-03-26T07:01:20.696Z,10.10
2019-03-26T07:03:56.561Z,9.87
2019-03-26T07:06:42.216Z,10.20
2019-03-26T07:09:16.167Z,10.40
2019-03-26T07:11:56.906Z,10.10
2019-03-26T07:14:30.928Z,10.67
2019-03-26T07:17:20.492Z,10.83
2019-03-26T07:20:17.082Z,10.60
2019-03-26T07:22:51.744Z,10.07
2019-03-26T07:25:26.560Z,10.03
2019-03-26T07:27:59.453Z,10.50
2019-03-26T07:30:39.895Z,10.17
2019-03-26T07:33:13.415Z,9.70
2019-03-26T07:35:46.941Z,10.10
2019-03-26T07:38:18.432Z,9.87
2019-03-26T07:40:51.806Z,9.40
2019-03-26T07:43:25.437Z,9.20
2019-03-26T07:46:16.838Z,8.53
2019-03-26T07:49:00.675Z,9.40
2019-03-26T07:51:38.482Z,9.10
2019-03-26T07:54:17.795Z,9.53
2019-03-26T07:57:01.538Z,9.37
2019-03-26T07:59:38.974Z,9.57
2019-03-26T08:02:10.688Z,10.20
2019-03-26T08:04:47.079Z,8.90
2019-03-26T08:07:23.985Z,9.20
2019-03-26T08:10:03.488Z,9.20
2019-03-26T08:12:50.908Z,8.77
2019-03-26T08:15:31.208Z,9.00
2019-03-26T08:18:16.145Z,8.50
2019-03-26T08:21:08.273Z,9.40
2019-03-26T08:23:41.395Z,8.30
2019-03-26T08:26:17.044Z,7.70
2019-03-26T08:28:55.041Z,7.70
2019-03-26T08:31:38.864Z,7.53
2019-03-26T08:34:14.542Z,7.90
2019-03-26T08:36:50.415Z,7.77
2019-03-26T08:39:39.453Z,7.47
2019-03-26T08:42:25.285Z,7.80
2019-03-26T08:45:03.417Z,7.53
2019-03-26T08:47:52.887Z,8.00
2019-03-26T08:50:30.591Z,7.53
2019-03-26T08:53:36.342Z,8.13
2019-03-26T08:56:33.629Z,7.73
2019-03-26T08:59:16.968Z,8.80
2019-03-26T09:01:49.833Z,7.67
2019-03-26T09:04:43.972Z,7.30
2019-03-26T09:07:23.494Z,7.00
2019-03-26T09:10:18.911Z,7.27
2019-03-26T09:12:58.834Z,5.53
2019-03-26T09:15:40.698Z,6.07
2019-03-26T09:18:13.305Z,5.77
2019-03-26T09:21:08.503Z,5.53
2019-03-26T09:23:50.815Z,5.20
2019-03-26T09:26:45.994Z,6.37
2019-03-26T09:29:24.365Z,5.87
2019-03-26T09:32:17.717Z,6.33
2019-03-26T09:34:56.531Z,7.50
2019-03-26T09:37:55.521Z,6.73
2019-03-26T09:40:39.756Z,8.17
2019-03-26T09:43:14.587Z,8.73
2019-03-26T09:45:50.810Z,7.30
2019-03-26T09:48:29.366Z,6.70
2019-03-26T09:51:05.213Z,6.80
2019-03-26T09:53:46.312Z,7.00
2019-03-26T09:56:28.508Z,6.00
2019-03-26T09:59:00.852Z,6.17
2019-03-26T10:01:34.143Z,6.00
2019-03-26T10:04:09.392Z,6.73
2019-03-26T10:07:20.986Z,5.60
2019-03-26T10:10:05.077Z,6.20
2019-03-26T10:12:44.568Z,6.70
2019-03-26T10:15:30.800Z,6.40
2019-03-26T10:18:21.834Z,7.20
2019-03-26T10:20:59.609Z,6.27
2019-03-26T10:23:31.854Z,6.80
2019-03-26T10:26:07.947Z,6.53
2019-03-26T10:28:42.611Z,6.73
2019-03-26T10:31:21.927Z,6.10
2019-03-26T10:33:53.518Z,5.80
2019-03-26T10:36:29.168Z,5.37
2019-03-26T10:39:05.861Z,6.10
2019-03-26T10:41:41.943Z,5.50
2019-03-26T10:44:22.007Z,4.60
2019-03-26T10:47:00.578Z,5.13
2019-03-26T10:49:50.458Z,4.87
2019-03-26T10:52:24.578Z,5.20
2019-03-26T10:55:00.367Z,5.07
2019-03-26T10:57:53.341Z,4.50
2019-03-26T11:00:44.581Z,4.80
2019-03-26T11:03:25.554Z,5.40
2019-03-26T11:05:56.769Z,5.10
2019-03-26T11:08:54.571Z,5.33
2019-03-26T11:11:28.675Z,5.60
2019-03-26T11:14:00.741Z,5.57
2019-03-26T11:16:36.056Z,5.50
2019-03-26T11:19:10.872Z,4.97
2019-03-26T11:22:15.131Z,4.30
2019-03-26T11:24:57.152Z,4.40
2019-03-26T11:27:29.166Z,4.80
2019-03-26T11:30:09.193Z,4.57
2019-03-26T11:32:47.130Z,4.90
2019-03-26T11:35:22.829Z,4.67
2019-03-26T11:37:55.471Z,4.77
2019-03-26T11:40:27.928Z,5.43
2019-03-26T11:43:01.177Z,5.20
2019-03-26T11:45:40.913Z,5.10
2019-03-26T11:48:20.741Z,4.10
2019-03-26T11:51:12.079Z,5.23
2019-03-26T11:54:01.708Z,5.10
2019-03-26T11:56:35.402Z,5.07
2019-03-26T11:59:19.481Z,4.90
2019-03-26T12:01:57.986Z,4.83
2019-03-26T12:04:47.624Z,5.03
2019-03-26T12:07:25.073Z,4.83
2019-03-26T12:09:59.721Z,5.10
2019-03-26T12:12:32.818Z,4.37
2019-03-26T12:15:04.298Z,4.40
2019-03-26T12:17:38.351Z,4.80
2019-03-26T12:20:11.334Z,4.60
2019-03-26T12:22:45.983Z,4.67
2019-03-26T12:25:17.001Z,4.30
2019-03-26T12:27:51.691Z,4.90
2019-03-26T12:30:40.297Z,5.10
2019-03-26T12:33:13.101Z,4.47
2019-03-26T12:35:46.320Z,4.23
2019-03-26T12:38:19.329Z,4.47
2019-03-26T12:40:52.773Z,5.37
2019-03-26T12:43:27.272Z,4.90
2019-03-26T12:46:01.590Z,5.10
2019-03-26T12:48:43.521Z,5.17
2019-03-26T12:51:30.659Z,4.37
2019-03-26T12:54:08.252Z,4.50
2019-03-26T12:56:53.945Z,4.40
2019-03-26T12:59:36.117Z,4.83
2019-03-26T13:02:07.154Z,4.37
2019-03-26T13:04:41.319Z,4.30
2019-03-26T13:07:16.799Z,5.10
2019-03-26T13:10:14.090Z,4.40
2019-03-26T13:12:47.379Z,4.70
2019-03-26T13:15:18.862Z,5.27
2019-03-26T13:17:56.365Z,4.40
2019-03-26T13:20:40.683Z,4.47
2019-03-26T13:23:13.537Z,5.10
2019-03-26T13:25:46.657Z,5.40
2019-03-26T13:28:18.800Z,5.47
2019-03-26T13:30:54.233Z,4.83
2019-03-26T13:33:27.102Z,4.60
2019-03-26T13:36:00.438Z,4.23
2019-03-26T13:38:31.557Z,4.90
2019-03-26T13:41:04.663Z,4.33
2019-03-26T13:43:39.478Z,5.40
2019-03-26T13:46:10.752Z,5.00
2019-03-26T13:48:42.902Z,4.63
2019-03-26T13:51:24.215Z,5.17
2019-03-26T13:53:56.668Z,3.80
2019-03-26T13:56:48.168Z,4.43
2019-03-26T13:59:29.162Z,3.97
2019-03-26T14:02:24.823Z,4.60
2019-03-26T14:05:04.739Z,5.00
2019-03-26T14:07:45.272Z,4.37
2019-03-26T14:10:26.088Z,4.83
2019-03-26T14:13:19.418Z,5.20
2019-03-26T14:16:05.236Z,4.27
2019-03-26T14:18:47.515Z,4.40
2019-03-26T14:21:26.746Z,4.60
2019-03-26T14:24:05.773Z,4.30
2019-03-26T14:26:46.147Z,5.23
2019-03-26T14:29:24.866Z,5.13
2019-03-26T14:32:21.529Z,5.17
2019-03-26T14:34:58.689Z,4.57
2019-03-26T14:37:32.415Z,4.50
2019-03-26T14:40:26.366Z,4.37
2019-03-26T14:43:05.980Z,4.53
2019-03-26T14:45:42.075Z,4.60
2019-03-26T14:48:31.723Z,4.90
2019-03-26T14:51:22.881Z,5.30
2019-03-26T14:53:53.946Z,4.77
2019-03-26T14:56:40.193Z,5.03
2019-03-26T14:59:08.065Z,5.00
2019-03-26T15:01:43.663Z,4.90
2019-03-26T15:04:17.104Z,5.00
2019-03-26T15:06:51.667Z,5.17
2019-03-26T15:09:28.758Z,6.03
2019-03-26T15:12:02.056Z,5.10
2019-03-26T15:14:39.885Z,5.00
2019-03-26T15:17:21.422Z,6.43
2019-03-26T15:19:59.169Z,6.10
2019-03-26T15:22:35.407Z,5.10
2019-03-26T15:25:13.176Z,5.67
2019-03-26T15:27:57.582Z,5.70
2019-03-26T15:30:31.748Z,5.10
2019-03-26T15:33:05.557Z,6.23
2019-03-26T15:35:38.000Z,5.40
2019-03-26T15:38:17.270Z,5.97
2019-03-26T15:41:21.062Z,5.40
2019-03-26T15:43:49.117Z,6.83
2019-03-26T15:46:32.047Z,5.73
2019-03-26T15:49:05.692Z,6.70
2019-03-26T15:51:40.754Z,6.60
2019-03-26T15:54:19.085Z,6.13
2019-03-26T15:56:56.807Z,7.07
2019-03-26T15:59:30.950Z,5.60
2019-03-26T16:02:04.785Z,6.23
2019-03-26T16:04:50.141Z,6.90
2019-03-26T16:07:23.428Z,5.90
2019-03-26T16:10:04.279Z,6.50
2019-03-26T16:12:41.345Z,5.90
2019-03-26T16:15:10.659Z,5.50
2019-03-26T16:17:48.617Z,6.00
2019-03-26T16:20:27.005Z,6.00
2019-03-26T16:23:00.525Z,5.63
2019-03-26T16:25:49.274Z,6.17
2019-03-26T16:28:26.790Z,5.57
2019-03-26T16:31:13.790Z,5.27
2019-03-26T16:33:47.021Z,5.23
2019-03-26T16:36:20.472Z,5.50
2019-03-26T16:38:55.826Z,4.97
2019-03-26T16:41:49.407Z,5.10
2019-03-26T16:44:21.254Z,6.20
2019-03-26T16:46:54.374Z,6.17
2019-03-26T16:49:28.841Z,6.20
2019-03-26T16:52:02.439Z,5.90
2019-03-26T16:54:43.840Z,7.20
2019-03-26T16:57:29.811Z,6.47
2019-03-26T17:00:36.068Z,5.70
2019-03-26T17:03:31.674Z,6.03
2019-03-26T17:06:25.218Z,6.00
2019-03-26T17:09:19.420Z,5.20
2019-03-26T17:12:03.108Z,5.70
2019-03-26T17:14:28.061Z,5.37
2019-03-26T17:17:01.797Z,4.97
2019-03-26T17:19:42.425Z,6.07
2019-03-26T17:22:17.973Z,6.10
2019-03-26T17:25:11.145Z,4.83
2019-03-26T17:27:45.540Z,5.57
2019-03-26T17:30:37.322Z,5.70
2019-03-26T17:33:28.984Z,5.20
2019-03-26T17:36:07.975Z,4.90
2019-03-26T17:38:45.344Z,5.20
2019-03-26T17:41:17.143Z,5.80
2019-03-26T17:43:52.104Z,5.30
2019-03-26T17:46:35.082Z,4.93
2019-03-26T17:49:09.292Z,5.33
2019-03-26T17:51:42.922Z,5.80
2019-03-26T17:54:20.644Z,6.00
2019-03-26T17:56:57.623Z,5.53
2019-03-26T17:59:29.644Z,5.10
2019-03-26T18:02:09.772Z,5.60
2019-03-26T18:04:43.696Z,5.33
2019-03-26T18:07:16.637Z,5.13
2019-03-26T18:09:53.274Z,4.70
2019-03-26T18:12:31.156Z,5.80
2019-03-26T18:14:59.493Z,5.37
2019-03-26T18:17:31.067Z,5.07
2019-03-26T18:20:06.343Z,4.53
2019-03-26T18:22:37.834Z,4.57
2019-03-26T18:25:14.981Z,4.00
2019-03-26T18:27:51.215Z,4.30
2019-03-26T18:30:24.124Z,3.83
2019-03-26T18:33:05.068Z,3.30
2019-03-26T18:35:54.804Z,2.90
2019-03-26T18:38:54.104Z,2.77
2019-03-26T18:41:35.161Z,3.40
2019-03-26T18:44:10.277Z,2.87
2019-03-26T18:47:01.812Z,2.87
2019-03-26T18:49:56.006Z,3.20
2019-03-26T18:52:48.361Z,2.70
2019-03-26T18:55:20.463Z,2.90
2019-03-26T18:57:54.987Z,6.47
2019-03-26T19:00:35.311Z,5.03
2019-03-26T19:03:17.040Z,4.33
2019-03-26T19:05:50.924Z,3.77
2019-03-26T19:08:25.471Z,3.63
2019-03-26T19:11:03.965Z,4.07
2019-03-26T19:13:38.590Z,3.17
2019-03-26T19:16:14.256Z,2.57
2019-03-26T19:18:58.279Z,4.27
2019-03-26T19:21:38.593Z,3.00
2019-03-26T19:24:20.679Z,4.13
2019-03-26T19:26:57.885Z,4.50
2019-03-26T19:29:33.783Z,3.50
2019-03-26T19:32:14.723Z,3.93
2019-03-26T19:35:05.089Z,3.40
2019-03-26T19:37:55.613Z,4.60
2019-03-26T19:40:33.027Z,3.93
2019-03-26T19:43:25.357Z,4.57
2019-03-26T19:46:15.304Z,4.20
2019-03-26T19:48:50.608Z,4.20
2019-03-26T19:51:25.393Z,4.50
2019-03-26T19:53:57.940Z,5.33
2019-03-26T19:56:29.830Z,4.30
2019-03-26T19:59:06.926Z,5.60
2019-03-26T20:01:48.287Z,4.90
2019-03-26T20:04:39.193Z,4.57
2019-03-26T20:07:26.085Z,4.60
2019-03-26T20:09:59.423Z,4.53
2019-03-26T20:12:36.700Z,4.60
2019-03-26T20:15:26.354Z,4.03
2019-03-26T20:17:59.556Z,4.60
2019-03-26T20:20:33.146Z,4.83
2019-03-26T20:23:04.599Z,3.80
2019-03-26T20:25:40.048Z,3.97
2019-03-26T20:28:14.251Z,3.93
2019-03-26T20:30:58.313Z,3.70
2019-03-26T20:33:34.779Z,3.80
2019-03-26T20:36:08.389Z,7.10
2019-03-26T20:38:51.494Z,5.43
2019-03-26T20:41:48.276Z,4.60
2019-03-26T20:44:22.333Z,4.10
2019-03-26T20:46:56.331Z,3.80
2019-03-26T20:49:46.015Z,4.00
2019-03-26T20:52:25.427Z,3.87
2019-03-26T20:55:01.272Z,4.00
2019-03-26T20:57:34.064Z,4.60
2019-03-26T21:00:22.289Z,3.77
2019-03-26T21:03:16.668Z,4.67
2019-03-26T21:06:11.990Z,4.93
2019-03-26T21:09:02.011Z,4.20
2019-03-26T21:11:40.183Z,4.53
2019-03-26T21:14:17.097Z,4.03
2019-03-26T21:16:52.784Z,3.70
2019-03-26T21:19:31.703Z,4.60
2019-03-26T21:22:06.940Z,3.80
2019-03-26T21:24:50.722Z,4.37
2019-03-26T21:27:31.243Z,3.90
2019-03-26T21:30:21.302Z,4.40
2019-03-26T21:32:54.191Z,3.80
2019-03-26T21:35:29.822Z,4.13
2019-03-26T21:38:17.541Z,4.60
2019-03-26T21:40:57.171Z,4.10
2019-03-26T21:43:39.872Z,4.33
2019-03-26T21:46:19.097Z,5.17
2019-03-26T21:49:06.016Z,4.97
2019-03-26T21:51:44.665Z,4.67
2019-03-26T21:54:25.580Z,4.90
2019-03-26T21:57:01.583Z,4.93
2019-03-26T21:59:56.305Z,4.53
2019-03-26T22:02:28.694Z,4.60
2019-03-26T22:05:09.545Z,5.37
2019-03-26T22:07:45.526Z,4.60
2019-03-26T22:10:19.961Z,4.50
2019-03-26T22:12:59.048Z,4.43
2019-03-26T22:15:32.690Z,4.80
2019-03-26T22:18:09.515Z,4.40
2019-03-26T22:20:46.051Z,5.73
2019-03-26T22:23:37.198Z,4.40
2019-03-26T22:26:14.367Z,4.30
2019-03-26T22:28:56.225Z,4.93
2019-03-26T22:31:29.322Z,4.87
2019-03-26T22:34:03.395Z,4.40
2019-03-26T22:36:48.688Z,4.80
2019-03-26T22:39:19.990Z,4.87
2019-03-26T22:41:55.752Z,5.00
2019-03-26T22:44:39.754Z,4.70
2019-03-26T22:47:10.881Z,5.13
2019-03-26T22:49:51.704Z,5.07
2019-03-26T22:52:24.174Z,4.60
2019-03-26T22:54:56.880Z,5.00
2019-03-26T22:57:31.983Z,4.90
2019-03-26T23:00:09.651Z,5.17
2019-03-26T23:02:41.129Z,5.87
2019-03-26T23:05:17.052Z,4.93
2019-03-26T23:07:55.382Z,4.87
2019-03-26T23:10:29.199Z,5.20
2019-03-26T23:13:03.985Z,5.77
2019-03-26T23:15:35.385Z,5.43
2019-03-26T23:18:08.949Z,5.53
2019-03-26T23:20:41.956Z,5.00
2019-03-26T23:23:19.163Z,5.63
2019-03-26T23:26:09.203Z,5.70
2019-03-26T23:28:58.270Z,5.30
2019-03-26T23:31:47.951Z,5.50
2019-03-26T23:34:39.424Z,5.00
2019-03-26T23:37:16.834Z,5.67
2019-03-26T23:39:50.842Z,5.90
2019-03-26T23:42:27.634Z,6.10
2019-03-26T23:45:02.088Z,5.73
2019-03-26T23:47:35.812Z,5.97
2019-03-26T23:50:11.640Z,5.63
2019-03-26T23:52:45.795Z,5.30
2019-03-26T23:55:18.112Z,6.00
2019-03-26T23:57:49.274Z,5.67
